Cadnam, United Kingdom
Current Conditions -  °F | °C
As of 8:20 PM on Saturday 25 Oct 2014 (Local Time) from EGHI Reporting Station
Scattered Clouds Scattered Clouds  
Wind Chill: 55°   Ceiling: Unl
Heat Index: 55°   Visibility: 6mi
Dew Point: 48°   Wind: 7mph
Humidity: 77%   Direction: 240°WSW
Pressure: 30.15"   Gusts: NA
Location:  50.92°N, 1.58°W
Report Text: EGHI 251920Z 24006KT 210V270 9999 SCT040 13/09 Q1021
Loading
Personal Weather Stations






























Interactive Weather Map
Tropical Storm Tracking
New forecast layout! Learn more

10-Day Weather Forecast

Advertisements
Track Severe Weather on mobile